createdAt,value
2018-06-18T00:00:43.135Z,69.21
2018-06-18T00:03:11.913Z,68.82
2018-06-18T00:05:40.529Z,69.50
2018-06-18T00:08:09.085Z,69.64
2018-06-18T00:10:37.624Z,70.03
2018-06-18T00:13:06.417Z,69.24
2018-06-18T00:15:34.947Z,69.92
2018-06-18T00:18:03.384Z,69.71
2018-06-18T00:20:32.193Z,70.13
2018-06-18T00:23:00.822Z,70.50
2018-06-18T00:25:29.509Z,70.95
2018-06-18T00:27:58.241Z,70.61
2018-06-18T00:30:26.887Z,70.33
2018-06-18T00:32:55.420Z,71.06
2018-06-18T00:35:24.422Z,70.78
2018-06-18T00:37:53.062Z,70.59
2018-06-18T00:40:21.903Z,70.31
2018-06-18T00:42:50.598Z,70.87
2018-06-18T00:45:19.214Z,70.33
2018-06-18T00:47:48.015Z,71.08
2018-06-18T00:50:16.524Z,70.97
2018-06-18T00:52:45.331Z,71.32
2018-06-18T00:55:23.805Z,70.74
2018-06-18T00:57:52.345Z,70.77
2018-06-18T01:00:20.881Z,71.08
2018-06-18T01:02:49.488Z,71.46
2018-06-18T01:05:18.039Z,71.74
2018-06-18T01:07:46.562Z,72.04
2018-06-18T01:10:15.070Z,72.24
2018-06-18T01:12:43.644Z,71.59
2018-06-18T01:15:12.768Z,71.75
2018-06-18T01:17:41.385Z,72.67
2018-06-18T01:20:09.951Z,72.09
2018-06-18T01:22:41.655Z,72.30
2018-06-18T01:25:10.138Z,73.55
2018-06-18T01:27:38.682Z,73.40
2018-06-18T01:30:07.700Z,73.68
2018-06-18T01:32:36.353Z,73.86
2018-06-18T01:35:04.925Z,73.19
2018-06-18T01:37:33.465Z,74.16
2018-06-18T01:40:02.023Z,73.99
2018-06-18T01:42:30.518Z,73.82
2018-06-18T01:44:59.274Z,73.64
2018-06-18T01:47:28.318Z,74.29
2018-06-18T01:49:56.839Z,74.83
2018-06-18T01:52:25.506Z,74.31
2018-06-18T01:54:54.023Z,75.11
2018-06-18T01:57:22.499Z,75.13
2018-06-18T01:59:51.029Z,75.49
2018-06-18T02:02:19.831Z,74.94
2018-06-18T02:04:48.678Z,74.64
2018-06-18T02:07:17.369Z,75.64
2018-06-18T02:09:45.933Z,75.43
2018-06-18T02:12:14.430Z,75.36
2018-06-18T02:14:42.950Z,76.56
2018-06-18T02:17:11.413Z,76.17
2018-06-18T02:19:39.918Z,76.98
2018-06-18T02:22:08.493Z,76.85
2018-06-18T02:24:37.002Z,77.12
2018-06-18T02:27:10.786Z,77.44
2018-06-18T02:29:44.561Z,77.31
2018-06-18T02:32:18.376Z,77.95
2018-06-18T02:34:52.247Z,78.04
2018-06-18T02:37:26.162Z,78.29
2018-06-18T02:39:59.980Z,78.61
2018-06-18T02:42:28.780Z,79.55
2018-06-18T02:44:57.419Z,80.00
2018-06-18T02:47:26.065Z,79.99
2018-06-18T02:49:54.815Z,80.79
2018-06-18T02:52:23.437Z,80.30
2018-06-18T02:54:52.143Z,81.03
2018-06-18T02:57:20.675Z,80.78
2018-06-18T02:59:49.464Z,81.27
2018-06-18T03:02:17.984Z,81.11
2018-06-18T03:04:46.799Z,80.96
2018-06-18T03:07:15.562Z,81.69
2018-06-18T03:09:44.164Z,81.28
2018-06-18T03:12:12.725Z,82.16
2018-06-18T03:14:41.317Z,81.40
2018-06-18T03:17:09.986Z,81.83
2018-06-18T03:19:43.870Z,81.64
2018-06-18T03:22:17.706Z,82.21
2018-06-18T03:24:51.349Z,82.59
2018-06-18T03:27:25.092Z,81.88
2018-06-18T03:29:53.660Z,81.95
2018-06-18T03:32:22.635Z,82.11
2018-06-18T03:34:51.446Z,82.71
2018-06-18T03:37:21.319Z,82.50
2018-06-18T03:39:50.504Z,82.84
2018-06-18T03:42:19.201Z,82.47
2018-06-18T03:45:51.041Z,82.21
2018-06-18T03:48:19.680Z,82.90
2018-06-18T03:50:48.421Z,81.11
2018-06-18T03:53:17.106Z,82.36
2018-06-18T03:56:01.618Z,81.97
2018-06-18T03:58:30.371Z,82.43
2018-06-18T04:01:37.869Z,80.76
2018-06-18T04:04:13.491Z,80.88
2018-06-18T04:06:47.428Z,80.42
2018-06-18T04:09:21.492Z,80.60
2018-06-18T04:11:55.599Z,79.92
2018-06-18T04:14:24.222Z,79.25
2018-06-18T04:16:52.797Z,78.62
2018-06-18T04:19:21.468Z,79.86
2018-06-18T04:21:50.097Z,78.66
2018-06-18T04:24:18.660Z,78.84
2018-06-18T04:26:47.344Z,77.26
2018-06-18T04:29:16.424Z,77.79
2018-06-18T04:31:45.354Z,77.77
2018-06-18T04:34:25.879Z,78.03
2018-06-18T04:36:54.882Z,77.46
2018-06-18T04:39:23.419Z,76.83
2018-06-18T04:44:03.752Z,77.03
2018-06-18T04:46:37.642Z,76.01
2018-06-18T04:49:11.476Z,75.80
2018-06-18T04:51:40.090Z,74.24
2018-06-18T04:54:08.837Z,73.20
2018-06-18T04:56:37.748Z,73.12
2018-06-18T04:59:06.331Z,74.73
2018-06-18T05:01:35.125Z,74.28
2018-06-18T05:04:03.819Z,73.70
2018-06-18T05:06:32.981Z,74.51
2018-06-18T05:09:18.322Z,75.04
2018-06-18T05:11:46.986Z,74.09
2018-06-18T05:14:15.747Z,73.54
2018-06-18T05:16:44.318Z,72.79
2018-06-18T05:19:12.949Z,72.93
2018-06-18T05:21:41.451Z,73.96
2018-06-18T05:24:09.987Z,72.39
2018-06-18T05:26:41.763Z,72.68
2018-06-18T05:29:10.389Z,73.21
2018-06-18T05:31:38.990Z,72.64
2018-06-18T05:34:08.039Z,71.72
2018-06-18T05:36:36.672Z,72.05
2018-06-18T05:39:08.159Z,72.60
2018-06-18T05:41:36.761Z,71.41
2018-06-18T05:44:05.387Z,70.46
2018-06-18T05:46:33.971Z,71.42
2018-06-18T05:49:02.629Z,72.07
2018-06-18T05:51:31.187Z,71.13
2018-06-18T05:53:59.815Z,71.93
2018-06-18T05:56:28.431Z,71.87
2018-06-18T05:58:57.017Z,71.47
2018-06-18T06:01:25.758Z,70.84
2018-06-18T06:03:54.486Z,70.81
2018-06-18T06:06:23.109Z,71.88
2018-06-18T06:08:51.625Z,71.32
2018-06-18T06:11:20.136Z,70.85
2018-06-18T06:13:48.770Z,70.99
2018-06-18T06:16:17.264Z,71.94
2018-06-18T06:18:45.796Z,71.02
2018-06-18T06:21:15.431Z,70.17
2018-06-18T06:23:44.785Z,70.49
2018-06-18T06:26:13.664Z,69.95
2018-06-18T06:28:42.284Z,71.12
2018-06-18T06:31:10.905Z,70.21
2018-06-18T06:33:39.453Z,70.37
2018-06-18T06:36:09.215Z,69.02
2018-06-18T06:38:38.205Z,69.36
2018-06-18T06:41:07.497Z,68.29
2018-06-18T06:43:36.279Z,67.99
2018-06-18T06:46:04.822Z,67.71
2018-06-18T06:48:33.357Z,66.11
2018-06-18T06:51:01.946Z,67.30
2018-06-18T06:53:30.551Z,66.92
2018-06-18T06:55:59.118Z,67.24
2018-06-18T06:58:27.745Z,67.18
2018-06-18T07:00:56.224Z,66.68
2018-06-18T07:03:24.778Z,65.77
2018-06-18T07:05:53.329Z,65.73
2018-06-18T07:08:22.393Z,65.52
2018-06-18T07:10:50.929Z,65.09
2018-06-18T07:13:19.565Z,64.38
2018-06-18T07:15:48.079Z,64.74
2018-06-18T07:18:17.075Z,64.58
2018-06-18T07:20:45.577Z,64.22
2018-06-18T07:23:15.743Z,63.27
2018-06-18T07:25:44.278Z,63.82
2018-06-18T07:28:15.161Z,63.98
2018-06-18T07:30:43.682Z,62.37
2018-06-18T07:33:12.739Z,61.58
2018-06-18T07:35:41.346Z,61.86
2018-06-18T07:38:11.136Z,62.98
2018-06-18T07:40:39.728Z,62.68
2018-06-18T07:43:09.665Z,62.89
2018-06-18T07:45:38.203Z,62.29
2018-06-18T07:48:06.797Z,62.74
2018-06-18T07:50:35.293Z,62.46
2018-06-18T07:53:05.377Z,62.00
2018-06-18T07:55:33.872Z,63.10
2018-06-18T07:58:04.915Z,60.99
2018-06-18T08:00:33.470Z,60.13
2018-06-18T08:03:04.588Z,59.42
2018-06-18T08:05:33.246Z,58.78
2018-06-18T08:08:01.782Z,58.84
2018-06-18T08:10:30.415Z,59.67
2018-06-18T08:13:00.078Z,58.73
2018-06-18T08:15:28.632Z,58.53
2018-06-18T08:17:57.739Z,57.70
2018-06-18T08:20:26.341Z,58.87
2018-06-18T08:22:57.028Z,58.28
2018-06-18T08:25:25.691Z,57.90
2018-06-18T08:27:54.363Z,58.28
2018-06-18T08:30:22.946Z,57.20
2018-06-18T08:32:52.976Z,57.85
2018-06-18T08:35:21.585Z,57.88
2018-06-18T08:37:50.216Z,56.99
2018-06-18T08:40:18.822Z,55.06
2018-06-18T08:42:49.822Z,53.50
2018-06-18T08:45:18.405Z,54.01
2018-06-18T08:47:48.832Z,54.51
2018-06-18T08:50:22.527Z,54.99
2018-06-18T08:52:56.417Z,54.86
2018-06-18T08:55:30.290Z,54.98
2018-06-18T08:58:03.975Z,54.15
2018-06-18T09:00:37.799Z,54.21
2018-06-18T09:03:16.561Z,54.28
2018-06-18T09:05:49.374Z,55.03
2018-06-18T09:08:23.722Z,54.38
2018-06-18T09:10:53.184Z,56.02
2018-06-18T09:13:21.869Z,56.47
2018-06-18T09:15:50.335Z,56.25
2018-06-18T09:18:18.849Z,56.40
2018-06-18T09:20:47.350Z,57.09
2018-06-18T09:23:15.827Z,57.95
2018-06-18T09:25:49.519Z,57.23
2018-06-18T09:28:18.102Z,58.00
2018-06-18T09:30:46.752Z,58.04
2018-06-18T09:33:15.411Z,57.87
2018-06-18T09:35:43.965Z,58.83
2018-06-18T09:38:12.585Z,58.11
2018-06-18T09:40:41.371Z,59.70
2018-06-18T09:43:09.983Z,58.58
2018-06-18T09:45:38.509Z,58.74
2018-06-18T09:48:07.324Z,57.98
2018-06-18T09:50:41.066Z,57.01
2018-06-18T09:53:14.871Z,56.78
2018-06-18T09:55:48.807Z,57.00
2018-06-18T09:58:22.488Z,57.62
2018-06-18T10:01:07.759Z,57.08
2018-06-18T10:03:36.307Z,57.17
2018-06-18T10:06:05.681Z,57.94
2018-06-18T10:08:34.283Z,58.18
2018-06-18T10:11:02.790Z,57.10
2018-06-18T10:13:31.359Z,57.61
2018-06-18T10:16:00.243Z,57.56
2018-06-18T10:18:28.858Z,58.34
2018-06-18T10:20:57.461Z,58.17
2018-06-18T10:23:27.178Z,58.61
2018-06-18T10:25:55.804Z,58.56
2018-06-18T10:28:24.464Z,58.72
2018-06-18T10:30:53.097Z,58.74
2018-06-18T10:33:27.045Z,58.54
2018-06-18T10:36:00.843Z,59.59
2018-06-18T10:38:34.643Z,59.56
2018-06-18T10:41:08.466Z,59.09
2018-06-18T10:43:37.752Z,58.92
2018-06-18T10:46:06.372Z,59.01
2018-06-18T10:48:34.907Z,58.65
2018-06-18T10:51:03.427Z,59.84
2018-06-18T10:53:32.019Z,59.42
2018-06-18T10:56:00.645Z,59.98
2018-06-18T10:58:29.185Z,58.88
2018-06-18T11:01:05.613Z,59.52
2018-06-18T11:03:34.110Z,59.56
2018-06-18T11:06:07.907Z,58.31
2018-06-18T11:08:36.448Z,59.07
2018-06-18T11:11:06.483Z,57.67
2018-06-18T11:13:35.068Z,58.06
2018-06-18T11:16:04.147Z,59.73
2018-06-18T11:18:38.013Z,59.67
2018-06-18T11:21:11.999Z,58.19
2018-06-18T11:23:45.672Z,58.16
2018-06-18T11:26:19.617Z,57.09
2018-06-18T11:28:48.191Z,58.47
2018-06-18T11:31:16.918Z,58.01
2018-06-18T11:33:45.585Z,58.65
2018-06-18T11:36:14.145Z,59.54
2018-06-18T11:38:42.857Z,57.99
2018-06-18T11:41:11.469Z,59.36
2018-06-18T11:43:40.090Z,59.56
2018-06-18T11:46:08.744Z,59.75
2018-06-18T11:48:37.369Z,59.57
2018-06-18T11:51:06.058Z,59.39
2018-06-18T11:53:34.841Z,58.92
2018-06-18T11:56:03.482Z,58.42
2018-06-18T11:58:37.275Z,58.60
2018-06-18T12:01:11.313Z,59.39
2018-06-18T12:03:45.203Z,59.68
2018-06-18T12:06:19.056Z,60.20
2018-06-18T12:08:53.940Z,60.83
2018-06-18T12:11:22.632Z,60.65
2018-06-18T12:13:51.249Z,61.31
2018-06-18T12:16:19.935Z,60.09
2018-06-18T12:18:48.548Z,60.76
2018-06-18T12:21:17.093Z,60.53
2018-06-18T12:23:46.278Z,60.82
2018-06-18T12:26:14.853Z,60.59
2018-06-18T12:28:43.443Z,60.47
2018-06-18T12:31:12.087Z,59.82
2018-06-18T12:33:40.697Z,60.07
2018-06-18T12:36:09.892Z,59.43
2018-06-18T12:38:40.206Z,59.80
2018-06-18T12:41:09.630Z,60.61
2018-06-18T12:43:40.363Z,60.42
2018-06-18T12:46:14.081Z,59.34
2018-06-18T12:48:47.935Z,59.67
2018-06-18T12:51:21.579Z,60.51
2018-06-18T12:53:55.433Z,59.66
2018-06-18T12:56:29.231Z,59.67
2018-06-18T12:58:57.762Z,59.01
2018-06-18T13:01:28.638Z,59.40
2018-06-18T13:03:57.206Z,58.66
2018-06-18T13:06:25.851Z,59.20
2018-06-18T13:08:54.374Z,59.42
2018-06-18T13:11:23.008Z,59.43
2018-06-18T13:13:51.537Z,58.91
2018-06-18T13:16:20.077Z,58.97
2018-06-18T13:18:48.607Z,58.49
2018-06-18T13:21:17.135Z,57.97
2018-06-18T13:23:45.651Z,56.75
2018-06-18T13:26:14.228Z,57.02
2018-06-18T13:28:42.790Z,56.45
2018-06-18T13:31:11.387Z,57.51
2018-06-18T13:33:40.037Z,56.86
2018-06-18T13:36:08.905Z,57.47
2018-06-18T13:38:43.101Z,55.77
2018-06-18T13:41:17.640Z,57.02
2018-06-18T13:43:51.331Z,55.68
2018-06-18T13:48:31.753Z,56.84
2018-06-18T13:51:00.373Z,56.39
2018-06-18T13:53:28.872Z,56.02
2018-06-18T13:55:57.330Z,56.32
2018-06-18T13:58:25.990Z,57.11
2018-06-18T14:00:55.019Z,56.31
2018-06-18T14:03:24.025Z,55.87
2018-06-18T14:05:52.830Z,56.09
2018-06-18T14:08:21.690Z,55.63
2018-06-18T14:10:50.510Z,56.13
2018-06-18T14:13:19.046Z,56.09
2018-06-18T14:15:47.809Z,55.30
2018-06-18T14:18:16.461Z,55.24
2018-06-18T14:20:45.147Z,55.31
2018-06-18T14:23:13.802Z,55.12
2018-06-18T14:25:42.417Z,55.06
2018-06-18T14:28:10.937Z,55.05
2018-06-18T14:30:44.564Z,55.00
2018-06-18T14:33:18.427Z,55.58
2018-06-18T14:35:52.557Z,56.33
2018-06-18T14:38:26.328Z,54.86
2018-06-18T14:40:54.963Z,54.81
2018-06-18T14:43:23.701Z,55.90
2018-06-18T14:45:52.900Z,55.48
2018-06-18T14:48:21.646Z,55.54
2018-06-18T14:50:50.101Z,54.85
2018-06-18T14:53:18.688Z,55.58
2018-06-18T14:55:51.952Z,54.82
2018-06-18T14:58:20.537Z,54.97
2018-06-18T15:00:49.612Z,54.57
2018-06-18T15:03:18.147Z,55.79
2018-06-18T15:05:46.655Z,55.03
2018-06-18T15:08:15.347Z,55.58
2018-06-18T15:10:50.604Z,54.88
2018-06-18T15:13:19.267Z,54.60
2018-06-18T15:15:54.264Z,56.07
2018-06-18T15:18:22.793Z,55.74
2018-06-18T15:20:52.838Z,55.73
2018-06-18T15:23:21.374Z,55.47
2018-06-18T15:25:51.695Z,55.05
2018-06-18T15:28:20.266Z,55.37
2018-06-18T15:30:49.053Z,55.25
2018-06-18T15:33:18.196Z,55.86
2018-06-18T15:35:46.851Z,55.76
2018-06-18T15:38:15.619Z,55.95
2018-06-18T15:40:44.190Z,56.00
2018-06-18T15:43:12.871Z,55.81
2018-06-18T15:45:42.306Z,55.69
2018-06-18T15:48:10.825Z,55.82
2018-06-18T15:50:39.385Z,56.71
2018-06-18T15:53:07.920Z,55.76
2018-06-18T15:55:36.511Z,56.95
2018-06-18T15:58:05.058Z,56.66
2018-06-18T16:00:33.573Z,55.70
2018-06-18T16:03:02.201Z,56.47
2018-06-18T16:05:30.813Z,55.91
2018-06-18T16:07:59.599Z,56.65
2018-06-18T16:10:28.075Z,56.68
2018-06-18T16:12:56.881Z,56.39
2018-06-18T16:15:25.386Z,56.98
2018-06-18T16:17:54.054Z,57.57
2018-06-18T16:20:22.775Z,57.53
2018-06-18T16:22:51.501Z,57.39
2018-06-18T16:25:20.161Z,56.83
2018-06-18T16:27:48.799Z,58.17
2018-06-18T16:30:17.361Z,58.46
2018-06-18T16:32:46.157Z,57.02
2018-06-18T16:35:14.764Z,56.58
2018-06-18T16:37:43.705Z,57.63
2018-06-18T16:40:12.646Z,57.94
2018-06-18T16:42:41.436Z,58.14
2018-06-18T16:45:10.114Z,58.21
2018-06-18T16:47:39.158Z,58.19
2018-06-18T16:50:07.790Z,57.86
2018-06-18T16:52:36.966Z,57.73
2018-06-18T16:55:05.674Z,57.15
2018-06-18T16:57:34.301Z,58.45
2018-06-18T17:00:03.184Z,58.31
2018-06-18T17:02:31.806Z,58.26
2018-06-18T17:05:01.992Z,58.53
2018-06-18T17:07:30.699Z,58.99
2018-06-18T17:09:59.386Z,59.52
2018-06-18T17:12:28.691Z,59.01
2018-06-18T17:14:57.502Z,59.34
2018-06-18T17:17:26.234Z,59.67
2018-06-18T17:19:54.874Z,59.03
2018-06-18T17:22:23.903Z,59.39
2018-06-18T17:24:52.717Z,58.92
2018-06-18T17:27:21.277Z,59.57
2018-06-18T17:29:49.889Z,59.04
2018-06-18T17:32:19.723Z,59.77
2018-06-18T17:34:48.220Z,59.54
2018-06-18T17:37:16.795Z,59.71
2018-06-18T17:39:45.577Z,60.38
2018-06-18T17:42:14.212Z,60.11
2018-06-18T17:44:42.765Z,60.22
2018-06-18T17:47:12.231Z,60.38
2018-06-18T17:49:41.055Z,61.06
2018-06-18T17:52:09.796Z,60.72
2018-06-18T17:54:38.352Z,60.96
2018-06-18T17:57:07.814Z,61.39
2018-06-18T17:59:37.103Z,60.89
2018-06-18T18:02:05.624Z,60.87
2018-06-18T18:04:34.717Z,61.26
2018-06-18T18:07:03.607Z,62.11
2018-06-18T18:09:32.145Z,61.87
2018-06-18T18:12:00.703Z,61.55
2018-06-18T18:14:29.459Z,61.97
2018-06-18T18:16:58.438Z,62.03
2018-06-18T18:19:27.390Z,62.24
2018-06-18T18:21:58.857Z,62.68
2018-06-18T18:24:27.929Z,62.61
2018-06-18T18:26:56.781Z,63.15
2018-06-18T18:29:25.398Z,63.23
2018-06-18T18:31:54.256Z,63.71
2018-06-18T18:34:23.145Z,64.20
2018-06-18T18:36:51.645Z,65.01
2018-06-18T18:39:20.188Z,67.81
2018-06-18T18:41:48.839Z,69.97
2018-06-18T18:44:17.529Z,70.10
2018-06-18T18:46:49.400Z,69.70
2018-06-18T18:49:18.330Z,70.10
2018-06-18T18:51:48.119Z,70.18
2018-06-18T18:56:34.457Z,69.63
2018-06-18T18:59:14.188Z,70.25
2018-06-18T19:01:43.000Z,71.04
2018-06-18T19:04:14.730Z,71.05
2018-06-18T19:06:43.282Z,71.35
2018-06-18T19:09:12.971Z,71.23
2018-06-18T19:11:41.624Z,71.92
2018-06-18T19:14:10.409Z,71.87
2018-06-18T19:16:39.290Z,72.13
2018-06-18T19:19:08.116Z,71.95
2018-06-18T19:21:36.894Z,71.98
2018-06-18T19:24:05.719Z,71.96
2018-06-18T19:26:34.473Z,72.32
2018-06-18T19:29:03.346Z,72.48
2018-06-18T19:31:32.272Z,72.41
2018-06-18T19:34:11.573Z,72.58
2018-06-18T19:36:46.761Z,72.87
2018-06-18T19:39:15.380Z,72.15
2018-06-18T19:41:44.194Z,72.27
2018-06-18T19:44:13.128Z,72.40
2018-06-18T19:47:48.558Z,72.44
2018-06-18T19:50:17.702Z,72.63
2018-06-18T19:52:46.497Z,72.89
2018-06-18T19:55:20.097Z,72.68
2018-06-18T19:57:48.937Z,72.35
2018-06-18T20:00:17.744Z,72.91
2018-06-18T20:02:46.643Z,73.33
2018-06-18T20:05:17.697Z,72.59
2018-06-18T20:08:04.405Z,72.82
2018-06-18T20:10:36.247Z,72.99
2018-06-18T20:13:07.140Z,73.23
2018-06-18T20:15:38.586Z,73.25
2018-06-18T20:18:10.563Z,73.36
2018-06-18T20:20:41.997Z,73.48
2018-06-18T20:26:22.549Z,73.45
2018-06-18T20:28:54.748Z,73.59
2018-06-18T20:31:26.439Z,73.60
2018-06-18T20:34:00.616Z,73.87
2018-06-18T20:36:32.368Z,74.35
2018-06-18T20:39:04.170Z,74.32
2018-06-18T20:41:36.283Z,74.66
2018-06-18T20:44:15.060Z,74.53
2018-06-18T20:46:46.597Z,74.40
2018-06-18T20:49:20.968Z,74.30
2018-06-18T20:51:54.173Z,74.58
2018-06-18T20:54:27.210Z,74.92
2018-06-18T20:56:59.992Z,75.02
2018-06-18T20:59:31.635Z,74.92
2018-06-18T21:02:04.589Z,75.62
2018-06-18T21:04:37.094Z,75.94
2018-06-18T21:07:10.477Z,75.85
2018-06-18T21:09:44.683Z,75.86
2018-06-18T21:12:16.988Z,75.90
2018-06-18T21:14:49.662Z,76.00
2018-06-18T21:17:21.744Z,76.47
2018-06-18T21:19:52.763Z,77.19
2018-06-18T21:22:23.999Z,76.63
2018-06-18T21:24:55.558Z,76.90
2018-06-18T21:27:27.111Z,77.20
2018-06-18T21:29:59.007Z,76.82
2018-06-18T21:32:32.497Z,76.81
2018-06-18T21:35:04.212Z,77.31
2018-06-18T21:37:34.935Z,77.19
2018-06-18T21:40:07.405Z,77.15
2018-06-18T21:42:39.512Z,77.35
2018-06-18T21:45:17.116Z,77.36
2018-06-18T21:47:49.394Z,77.31
2018-06-18T21:50:20.700Z,76.82
2018-06-18T21:52:53.649Z,77.28
2018-06-18T21:55:25.247Z,77.09
2018-06-18T21:57:54.263Z,77.37
2018-06-18T22:00:28.703Z,77.31
2018-06-18T22:02:57.485Z,77.46
2018-06-18T22:05:26.232Z,77.75
2018-06-18T22:07:55.876Z,77.88
2018-06-18T22:10:24.449Z,77.90
2018-06-18T22:12:53.390Z,78.11
2018-06-18T22:15:22.295Z,77.97
2018-06-18T22:17:51.086Z,77.97
2018-06-18T22:20:20.365Z,77.68
2018-06-18T22:22:48.970Z,78.69
2018-06-18T22:25:17.565Z,78.70
2018-06-18T22:27:46.149Z,78.18
2018-06-18T22:30:14.768Z,78.78
2018-06-18T22:32:43.326Z,78.32
2018-06-18T22:35:12.107Z,78.77
2018-06-18T22:37:40.689Z,78.50
2018-06-18T22:40:09.660Z,78.45
2018-06-18T22:42:38.262Z,78.74
2018-06-18T22:45:09.469Z,79.28
2018-06-18T22:47:38.109Z,79.12
2018-06-18T22:50:07.332Z,79.26
2018-06-18T22:52:35.976Z,79.69
2018-06-18T22:55:04.833Z,79.44
2018-06-18T22:57:33.291Z,79.34
2018-06-18T23:00:01.982Z,79.37
2018-06-18T23:02:32.383Z,79.70
2018-06-18T23:05:01.323Z,79.59
2018-06-18T23:07:30.234Z,79.21
2018-06-18T23:09:59.056Z,79.62
2018-06-18T23:12:32.729Z,80.55
2018-06-18T23:15:01.377Z,80.41
2018-06-18T23:17:30.109Z,79.80
2018-06-18T23:19:58.781Z,80.12
2018-06-18T23:22:27.414Z,79.36
2018-06-18T23:24:56.007Z,80.13
2018-06-18T23:27:24.630Z,79.60
2018-06-18T23:29:53.738Z,80.10
2018-06-18T23:32:22.432Z,79.62
2018-06-18T23:34:50.989Z,80.51
2018-06-18T23:37:19.599Z,80.63
2018-06-18T23:39:48.896Z,79.98
2018-06-18T23:42:17.713Z,80.10
2018-06-18T23:44:46.569Z,80.73
2018-06-18T23:47:15.420Z,81.97
2018-06-18T23:49:45.921Z,81.82
2018-06-18T23:52:14.755Z,81.68
2018-06-18T23:54:43.298Z,81.22
2018-06-18T23:57:11.903Z,81.23
2018-06-18T23:59:40.641Z,81.16
